createdAt,value
2023-02-15T00:01:35.902Z,4.88
2023-02-15T00:04:02.776Z,4.97
2023-02-15T00:06:29.244Z,4.89
2023-02-15T00:08:56.251Z,4.84
2023-02-15T00:11:41.502Z,4.73
2023-02-15T00:14:26.896Z,4.78
2023-02-15T00:16:54.199Z,4.94
2023-02-15T00:19:21.640Z,4.84
2023-02-15T00:21:49.582Z,4.63
2023-02-15T00:24:17.683Z,4.70
2023-02-15T00:26:44.960Z,4.92
2023-02-15T00:29:12.316Z,4.77
2023-02-15T00:31:39.172Z,5.03
2023-02-15T00:34:25.950Z,5.08
2023-02-15T00:36:53.114Z,5.06
2023-02-15T00:39:20.024Z,4.92
2023-02-15T00:41:47.120Z,4.72
2023-02-15T00:44:14.325Z,4.79
2023-02-15T00:46:41.032Z,4.90
2023-02-15T00:49:07.629Z,4.73
2023-02-15T00:51:34.230Z,4.86
2023-02-15T00:54:00.799Z,4.56
2023-02-15T00:56:29.377Z,4.52
2023-02-15T00:58:56.146Z,4.22
2023-02-15T01:01:24.494Z,4.35
2023-02-15T01:03:51.010Z,4.67
2023-02-15T01:06:17.908Z,4.60
2023-02-15T01:08:47.970Z,4.10
2023-02-15T01:11:22.995Z,4.14
2023-02-15T01:13:56.477Z,4.11
2023-02-15T01:16:24.405Z,4.07
2023-02-15T01:18:51.071Z,3.83
2023-02-15T01:21:20.105Z,4.01
2023-02-15T01:23:46.732Z,4.02
2023-02-15T01:26:14.133Z,4.17
2023-02-15T01:28:40.697Z,4.36
2023-02-15T01:31:12.236Z,4.66
2023-02-15T01:33:39.039Z,4.60
2023-02-15T01:36:06.000Z,4.47
2023-02-15T01:38:32.871Z,4.75
2023-02-15T01:41:17.823Z,4.93
2023-02-15T01:43:56.557Z,4.74
2023-02-15T01:46:44.332Z,4.97
2023-02-15T01:49:14.333Z,4.54
2023-02-15T01:51:42.422Z,4.74
2023-02-15T01:54:28.528Z,4.47
2023-02-15T01:56:59.712Z,4.17
2023-02-15T01:59:26.434Z,4.05
2023-02-15T02:01:55.805Z,4.47
2023-02-15T02:04:26.892Z,4.02
2023-02-15T02:06:54.243Z,3.92
2023-02-15T02:09:20.701Z,4.25
2023-02-15T02:11:48.389Z,4.83
2023-02-15T02:14:15.815Z,4.98
2023-02-15T02:17:29.306Z,4.04
2023-02-15T02:20:29.904Z,3.84
2023-02-15T02:23:08.133Z,4.34
2023-02-15T02:26:12.350Z,4.66
2023-02-15T02:29:08.404Z,4.61
2023-02-15T02:31:45.787Z,4.64
2023-02-15T02:34:27.065Z,4.71
2023-02-15T02:37:11.732Z,4.18
2023-02-15T02:39:42.911Z,4.55
2023-02-15T02:42:40.536Z,4.77
2023-02-15T02:45:15.759Z,5.00
2023-02-15T02:47:52.308Z,4.24
2023-02-15T02:50:23.784Z,4.52
2023-02-15T02:52:52.570Z,4.50
2023-02-15T02:55:36.854Z,4.45
2023-02-15T02:58:17.921Z,4.72
2023-02-15T03:00:49.974Z,4.60
2023-02-15T03:03:22.365Z,4.76
2023-02-15T03:05:51.192Z,4.64
2023-02-15T03:08:22.899Z,4.44
2023-02-15T03:10:53.212Z,4.46
2023-02-15T03:13:20.084Z,4.60
2023-02-15T03:16:05.740Z,4.47
2023-02-15T03:18:37.006Z,4.38
2023-02-15T03:21:04.479Z,4.12
2023-02-15T03:23:31.560Z,4.00
2023-02-15T03:26:00.680Z,4.52
2023-02-15T03:28:35.076Z,4.63
2023-02-15T03:31:04.071Z,4.64
2023-02-15T03:33:30.912Z,4.88
2023-02-15T03:36:39.246Z,4.70
2023-02-15T03:39:14.089Z,4.58
2023-02-15T03:41:47.190Z,4.76
2023-02-15T03:44:21.679Z,4.73
2023-02-15T03:46:54.810Z,4.53
2023-02-15T03:49:25.701Z,4.64
2023-02-15T03:51:54.193Z,4.67
2023-02-15T03:54:44.505Z,4.43
2023-02-15T03:57:31.326Z,4.59
2023-02-15T04:00:18.222Z,3.95
2023-02-15T04:02:56.897Z,4.59
2023-02-15T04:05:23.338Z,4.56
2023-02-15T04:07:49.822Z,4.67
2023-02-15T04:10:35.001Z,4.62
2023-02-15T04:13:01.467Z,4.60
2023-02-15T04:15:46.742Z,4.46
2023-02-15T04:18:13.240Z,4.69
2023-02-15T04:20:58.304Z,5.06
2023-02-15T04:23:43.375Z,4.67
2023-02-15T04:26:09.819Z,4.76
2023-02-15T04:28:36.696Z,4.95
2023-02-15T04:31:03.172Z,4.82
2023-02-15T04:33:29.744Z,4.67
2023-02-15T04:35:57.235Z,4.43
2023-02-15T04:38:23.791Z,4.93
2023-02-15T04:40:52.156Z,4.42
2023-02-15T04:43:19.760Z,4.66
2023-02-15T04:45:51.387Z,4.47
2023-02-15T04:48:18.897Z,4.53
2023-02-15T04:50:45.966Z,4.43
2023-02-15T04:53:12.628Z,4.34
2023-02-15T04:55:39.149Z,4.13
2023-02-15T04:58:05.623Z,3.82
2023-02-15T05:00:32.116Z,3.87
2023-02-15T05:02:58.605Z,4.12
2023-02-15T05:05:25.113Z,4.48
2023-02-15T05:07:51.559Z,4.38
2023-02-15T05:10:18.191Z,4.24
2023-02-15T05:12:44.700Z,4.38
2023-02-15T05:15:11.247Z,4.43
2023-02-15T05:17:37.743Z,4.77
2023-02-15T05:20:05.028Z,4.80
2023-02-15T05:22:31.478Z,4.74
2023-02-15T05:25:16.594Z,4.69
2023-02-15T05:28:02.842Z,4.55
2023-02-15T05:30:30.426Z,4.23
2023-02-15T05:32:56.956Z,4.30
2023-02-15T05:35:23.519Z,4.71
2023-02-15T05:37:50.004Z,5.27
2023-02-15T05:40:16.637Z,5.39
2023-02-15T05:42:43.132Z,4.98
2023-02-15T05:45:09.848Z,5.50
2023-02-15T05:47:36.342Z,5.41
2023-02-15T05:50:02.851Z,5.20
2023-02-15T05:52:29.272Z,5.07
2023-02-15T05:54:55.758Z,5.53
2023-02-15T05:57:22.222Z,5.07
2023-02-15T05:59:48.672Z,5.33
2023-02-15T06:02:25.305Z,5.33
2023-02-15T06:04:51.756Z,5.61
2023-02-15T06:07:18.246Z,5.94
2023-02-15T06:09:53.658Z,5.60
2023-02-15T06:12:20.135Z,5.68
2023-02-15T06:14:46.581Z,6.00
2023-02-15T06:17:13.211Z,5.63
2023-02-15T06:19:39.660Z,5.97
2023-02-15T06:22:07.344Z,5.90
2023-02-15T06:24:33.796Z,5.75
2023-02-15T06:27:00.249Z,5.88
2023-02-15T06:29:26.760Z,5.51
2023-02-15T06:31:53.304Z,5.33
2023-02-15T06:34:19.926Z,5.21
2023-02-15T06:36:46.420Z,5.49
2023-02-15T06:39:12.889Z,5.41
2023-02-15T06:41:40.010Z,5.19
2023-02-15T06:44:06.525Z,5.33
2023-02-15T06:46:33.146Z,5.82
2023-02-15T06:48:59.741Z,5.99
2023-02-15T06:51:26.264Z,5.64
2023-02-15T06:53:52.744Z,5.31
2023-02-15T06:56:19.233Z,5.19
2023-02-15T06:58:46.987Z,5.18
2023-02-15T07:01:13.688Z,5.07
2023-02-15T07:03:44.363Z,5.01
2023-02-15T07:06:11.714Z,4.78
2023-02-15T07:08:39.397Z,4.80
2023-02-15T07:11:25.535Z,5.03
2023-02-15T07:13:53.348Z,5.04
2023-02-15T07:16:20.655Z,5.40
2023-02-15T07:18:47.364Z,5.62
2023-02-15T07:21:13.840Z,5.81
2023-02-15T07:23:40.706Z,5.37
2023-02-15T07:26:08.379Z,5.29
2023-02-15T07:28:35.522Z,5.39
2023-02-15T07:31:03.606Z,5.33
2023-02-15T07:33:32.627Z,5.66
2023-02-15T07:36:01.363Z,5.54
2023-02-15T07:38:30.538Z,5.62
2023-02-15T07:41:01.131Z,5.37
2023-02-15T07:43:28.567Z,5.46
2023-02-15T07:45:55.115Z,5.42
2023-02-15T07:48:23.280Z,5.83
2023-02-15T07:50:51.297Z,5.85
2023-02-15T07:53:17.755Z,6.31
2023-02-15T07:55:44.259Z,6.22
2023-02-15T07:58:10.820Z,5.83
2023-02-15T08:00:55.869Z,5.92
2023-02-15T08:03:27.890Z,5.50
2023-02-15T08:05:59.614Z,5.47
2023-02-15T08:08:33.546Z,5.78
2023-02-15T08:11:25.849Z,5.64
2023-02-15T08:13:54.861Z,5.92
2023-02-15T08:16:22.921Z,5.84
2023-02-15T08:18:49.458Z,6.24
2023-02-15T08:21:15.932Z,6.27
2023-02-15T08:23:42.527Z,6.05
2023-02-15T08:26:09.037Z,6.17
2023-02-15T08:28:35.523Z,6.33
2023-02-15T08:31:09.653Z,6.17
2023-02-15T08:33:37.562Z,6.02
2023-02-15T08:36:05.930Z,6.19
2023-02-15T08:38:33.730Z,6.30
2023-02-15T08:41:24.804Z,6.36
2023-02-15T08:43:55.894Z,6.07
2023-02-15T08:46:23.916Z,6.67
2023-02-15T08:48:50.980Z,6.37
2023-02-15T08:51:23.294Z,6.54
2023-02-15T08:53:52.239Z,6.52
2023-02-15T08:56:22.696Z,6.85
2023-02-15T08:58:49.551Z,6.44
2023-02-15T09:01:24.307Z,6.72
2023-02-15T09:03:55.265Z,6.52
2023-02-15T09:06:22.895Z,6.79
2023-02-15T09:08:52.787Z,7.00
2023-02-15T09:11:24.888Z,6.58
2023-02-15T09:13:54.807Z,6.54
2023-02-15T09:16:22.577Z,6.50
2023-02-15T09:18:49.808Z,6.82
2023-02-15T09:21:18.746Z,6.25
2023-02-15T09:23:47.030Z,6.82
2023-02-15T09:26:16.548Z,6.76
2023-02-15T09:28:43.132Z,6.75
2023-02-15T09:31:16.128Z,6.91
2023-02-15T09:33:44.531Z,6.73
2023-02-15T09:36:20.236Z,6.77
2023-02-15T09:38:47.429Z,6.91
2023-02-15T09:41:35.747Z,6.98
2023-02-15T09:44:08.259Z,6.74
2023-02-15T09:46:48.935Z,6.80
2023-02-15T09:49:56.689Z,7.10
2023-02-15T09:52:49.188Z,7.31
2023-02-15T09:55:37.415Z,7.09
2023-02-15T09:58:33.345Z,7.51
2023-02-15T10:01:20.748Z,7.39
2023-02-15T10:04:13.633Z,7.31
2023-02-15T10:06:45.215Z,7.36
2023-02-15T10:09:50.196Z,7.11
2023-02-15T10:12:25.793Z,7.42
2023-02-15T10:15:10.135Z,7.61
2023-02-15T10:18:10.722Z,7.83
2023-02-15T10:20:58.791Z,7.38
2023-02-15T10:23:38.841Z,7.14
2023-02-15T10:26:20.014Z,7.54
2023-02-15T10:28:53.554Z,7.75
2023-02-15T10:32:04.819Z,7.46
2023-02-15T10:34:41.289Z,7.27
2023-02-15T10:37:35.614Z,7.34
2023-02-15T10:40:28.113Z,7.64
2023-02-15T10:43:07.860Z,7.33
2023-02-15T10:45:48.064Z,7.66
2023-02-15T10:48:23.167Z,7.60
2023-02-15T10:50:54.184Z,8.02
2023-02-15T10:53:51.666Z,8.17
2023-02-15T10:56:27.852Z,8.11
2023-02-15T10:59:31.892Z,8.00
2023-02-15T11:02:58.445Z,7.90
2023-02-15T11:05:39.770Z,8.11
2023-02-15T11:08:08.746Z,7.97
2023-02-15T11:10:39.568Z,8.24
2023-02-15T11:13:13.420Z,8.44
2023-02-15T11:15:53.517Z,8.50
2023-02-15T11:18:32.063Z,8.39
2023-02-15T11:21:04.731Z,8.17
2023-02-15T11:23:33.167Z,7.80
2023-02-15T11:26:05.801Z,7.94
2023-02-15T11:28:39.365Z,8.09
2023-02-15T11:31:26.940Z,7.91
2023-02-15T11:34:01.144Z,8.19
2023-02-15T11:36:33.249Z,8.52
2023-02-15T11:39:04.842Z,8.00
2023-02-15T11:41:36.169Z,8.19
2023-02-15T11:44:27.305Z,8.04
2023-02-15T11:46:53.882Z,7.96
2023-02-15T11:49:28.613Z,7.82
2023-02-15T11:51:56.840Z,7.94
2023-02-15T11:54:29.120Z,8.14
2023-02-15T11:57:19.060Z,8.10
2023-02-15T11:59:53.864Z,8.39
2023-02-15T12:02:23.211Z,8.33
2023-02-15T12:05:00.385Z,8.35
2023-02-15T12:07:34.604Z,7.95
2023-02-15T12:10:33.276Z,8.12
2023-02-15T12:13:17.346Z,7.96
2023-02-15T12:15:53.136Z,8.18
2023-02-15T12:18:45.927Z,7.89
2023-02-15T12:21:16.126Z,8.11
2023-02-15T12:23:48.914Z,8.08
2023-02-15T12:26:16.110Z,8.83
2023-02-15T12:28:45.343Z,8.77
2023-02-15T12:31:33.124Z,8.11
2023-02-15T12:34:03.423Z,7.88
2023-02-15T12:36:35.051Z,8.30
2023-02-15T12:39:13.670Z,8.52
2023-02-15T12:41:55.551Z,8.49
2023-02-15T12:44:31.018Z,8.73
2023-02-15T12:46:59.285Z,8.52
2023-02-15T12:49:27.147Z,8.55
2023-02-15T12:51:59.493Z,8.74
2023-02-15T12:54:41.103Z,8.93
2023-02-15T12:57:30.755Z,9.04
2023-02-15T13:00:01.706Z,9.04
2023-02-15T13:02:32.223Z,9.08
2023-02-15T13:05:06.734Z,9.04
2023-02-15T13:07:33.649Z,9.32
2023-02-15T13:10:00.374Z,9.50
2023-02-15T13:12:29.954Z,9.34
2023-02-15T13:14:57.130Z,8.89
2023-02-15T13:17:32.752Z,9.03
2023-02-15T13:20:05.010Z,9.04
2023-02-15T13:22:44.883Z,9.11
2023-02-15T13:25:20.073Z,8.78
2023-02-15T13:27:47.635Z,8.85
2023-02-15T13:30:27.055Z,9.50
2023-02-15T13:32:58.541Z,9.18
2023-02-15T13:35:26.312Z,9.00
2023-02-15T13:38:18.989Z,8.85
2023-02-15T13:40:55.393Z,8.51
2023-02-15T13:43:44.677Z,9.20
2023-02-15T13:46:44.002Z,8.94
2023-02-15T13:49:30.847Z,8.63
2023-02-15T13:52:19.278Z,8.39
2023-02-15T13:55:08.158Z,8.37
2023-02-15T13:57:50.073Z,8.43
2023-02-15T14:00:38.354Z,8.25
2023-02-15T14:03:38.986Z,8.38
2023-02-15T14:06:20.909Z,8.27
2023-02-15T14:08:59.333Z,9.02
2023-02-15T14:11:33.355Z,8.68
2023-02-15T14:14:10.244Z,8.71
2023-02-15T14:17:21.961Z,8.94
2023-02-15T14:20:18.591Z,9.18
2023-02-15T14:23:06.880Z,9.24
2023-02-15T14:25:42.201Z,9.12
2023-02-15T14:28:13.569Z,9.02
2023-02-15T14:30:43.537Z,8.82
2023-02-15T14:33:32.804Z,8.89
2023-02-15T14:36:01.980Z,8.63
2023-02-15T14:38:37.510Z,8.99
2023-02-15T14:41:18.343Z,9.39
2023-02-15T14:43:50.897Z,9.14
2023-02-15T14:46:25.178Z,8.94
2023-02-15T14:48:54.485Z,9.18
2023-02-15T14:51:44.062Z,9.12
2023-02-15T14:54:11.894Z,9.01
2023-02-15T14:56:39.987Z,8.80
2023-02-15T14:59:12.502Z,8.71
2023-02-15T15:01:39.624Z,8.67
2023-02-15T15:04:12.822Z,9.28
2023-02-15T15:06:42.439Z,9.27
2023-02-15T15:09:28.300Z,8.95
2023-02-15T15:12:02.470Z,9.20
2023-02-15T15:14:35.259Z,9.04
2023-02-15T15:17:04.957Z,8.87
2023-02-15T15:19:53.703Z,9.19
2023-02-15T15:22:24.745Z,9.11
2023-02-15T15:24:55.803Z,8.72
2023-02-15T15:27:40.675Z,8.97
2023-02-15T15:30:30.514Z,8.95
2023-02-15T15:33:07.990Z,9.15
2023-02-15T15:36:16.590Z,8.90
2023-02-15T15:39:14.029Z,8.96
2023-02-15T15:42:16.285Z,8.71
2023-02-15T15:45:04.941Z,8.79
2023-02-15T15:47:36.431Z,8.88
2023-02-15T15:50:13.308Z,8.69
2023-02-15T15:52:41.245Z,8.63
2023-02-15T15:55:18.061Z,8.67
2023-02-15T15:57:45.704Z,8.47
2023-02-15T16:00:30.546Z,7.96
2023-02-15T16:02:57.187Z,8.32
2023-02-15T16:05:24.088Z,8.20
2023-02-15T16:07:50.802Z,8.22
2023-02-15T16:10:23.740Z,8.39
2023-02-15T16:12:50.825Z,8.38
2023-02-15T16:15:22.597Z,8.64
2023-02-15T16:17:54.555Z,8.26
2023-02-15T16:20:24.507Z,8.32
2023-02-15T16:23:17.552Z,8.27
2023-02-15T16:25:58.772Z,8.00
2023-02-15T16:28:25.416Z,8.24
2023-02-15T16:31:13.108Z,8.33
2023-02-15T16:33:41.164Z,8.28
2023-02-15T16:36:21.618Z,8.41
2023-02-15T16:39:02.049Z,8.39
2023-02-15T16:41:29.858Z,8.14
2023-02-15T16:44:20.243Z,8.33
2023-02-15T16:46:56.016Z,8.34
2023-02-15T16:49:24.522Z,8.13
2023-02-15T16:52:00.649Z,7.87
2023-02-15T16:54:28.758Z,8.11
2023-02-15T16:56:55.486Z,7.96
2023-02-15T16:59:36.463Z,7.72
2023-02-15T17:02:40.091Z,8.04
2023-02-15T17:05:12.145Z,7.66
2023-02-15T17:07:51.200Z,8.21
2023-02-15T17:10:33.169Z,8.01
2023-02-15T17:13:06.108Z,8.28
2023-02-15T17:15:35.008Z,7.91
2023-02-15T17:18:06.324Z,8.38
2023-02-15T17:20:36.475Z,8.24
2023-02-15T17:23:05.147Z,8.22
2023-02-15T17:25:41.024Z,7.75
2023-02-15T17:28:18.184Z,7.99
2023-02-15T17:30:47.194Z,8.22
2023-02-15T17:33:40.626Z,8.13
2023-02-15T17:36:16.929Z,8.28
2023-02-15T17:38:58.784Z,8.20
2023-02-15T17:41:30.490Z,8.13
2023-02-15T17:43:57.245Z,8.30
2023-02-15T17:46:24.418Z,8.50
2023-02-15T17:48:55.735Z,8.08
2023-02-15T17:51:23.559Z,7.86
2023-02-15T17:54:08.859Z,7.99
2023-02-15T17:56:36.942Z,8.06
2023-02-15T17:59:07.636Z,8.05
2023-02-15T18:02:00.365Z,7.98
2023-02-15T18:04:45.400Z,8.24
2023-02-15T18:07:31.495Z,8.42
2023-02-15T18:10:16.870Z,7.96
2023-02-15T18:12:43.388Z,8.03
2023-02-15T18:15:12.323Z,7.85
2023-02-15T18:17:41.815Z,7.68
2023-02-15T18:20:31.393Z,7.94
2023-02-15T18:22:58.170Z,8.20
2023-02-15T18:25:25.648Z,8.22
2023-02-15T18:27:54.898Z,7.82
2023-02-15T18:30:23.793Z,7.50
2023-02-15T18:32:51.967Z,7.72
2023-02-15T18:35:20.283Z,7.61
2023-02-15T18:37:48.614Z,8.01
2023-02-15T18:40:20.449Z,8.09
2023-02-15T18:42:48.462Z,7.69
2023-02-15T18:45:22.323Z,7.19
2023-02-15T18:47:48.964Z,7.63
2023-02-15T18:50:17.540Z,7.72
2023-02-15T18:52:46.602Z,7.80
2023-02-15T18:55:22.072Z,7.68
2023-02-15T18:57:49.755Z,7.89
2023-02-15T19:00:22.772Z,8.07
2023-02-15T19:02:49.216Z,7.88
2023-02-15T19:05:17.885Z,7.86
2023-02-15T19:07:48.377Z,8.05
2023-02-15T19:10:22.977Z,7.77
2023-02-15T19:12:50.221Z,7.77
2023-02-15T19:15:18.559Z,7.72
2023-02-15T19:17:45.096Z,7.88
2023-02-15T19:20:38.373Z,7.78
2023-02-15T19:23:12.544Z,7.90
2023-02-15T19:25:39.617Z,7.69
2023-02-15T19:28:12.070Z,7.57
2023-02-15T19:30:38.634Z,7.46
2023-02-15T19:33:05.308Z,7.59
2023-02-15T19:35:35.235Z,7.28
2023-02-15T19:38:04.105Z,7.16
2023-02-15T19:40:32.458Z,7.54
2023-02-15T19:42:58.999Z,7.41
2023-02-15T19:45:27.909Z,7.41
2023-02-15T19:47:55.241Z,7.55
2023-02-15T19:50:26.441Z,7.50
2023-02-15T19:52:53.052Z,7.49
2023-02-15T19:55:29.668Z,7.64
2023-02-15T19:57:57.703Z,7.61
2023-02-15T20:00:26.452Z,7.64
2023-02-15T20:02:53.740Z,7.34
2023-02-15T20:05:20.780Z,7.55
2023-02-15T20:07:49.628Z,7.43
2023-02-15T20:10:21.359Z,7.44
2023-02-15T20:12:48.305Z,7.29
2023-02-15T20:15:24.010Z,7.24
2023-02-15T20:17:51.499Z,7.15
2023-02-15T20:20:18.818Z,7.29
2023-02-15T20:22:47.639Z,7.07
2023-02-15T20:25:24.191Z,6.92
2023-02-15T20:27:50.948Z,7.02
2023-02-15T20:30:31.816Z,7.27
2023-02-15T20:32:58.825Z,7.15
2023-02-15T20:35:31.128Z,7.05
2023-02-15T20:38:00.401Z,6.95
2023-02-15T20:40:32.093Z,6.84
2023-02-15T20:42:59.092Z,6.69
2023-02-15T20:45:28.302Z,6.40
2023-02-15T20:47:55.392Z,6.61
2023-02-15T20:50:24.427Z,6.75
2023-02-15T20:52:52.304Z,6.89
2023-02-15T20:55:24.379Z,6.89
2023-02-15T20:57:51.388Z,6.84
2023-02-15T21:00:26.506Z,6.69
2023-02-15T21:02:56.762Z,6.44
2023-02-15T21:05:25.903Z,6.29
2023-02-15T21:07:53.383Z,6.15
2023-02-15T21:10:22.526Z,6.08
2023-02-15T21:12:49.971Z,5.79
2023-02-15T21:15:35.641Z,5.75
2023-02-15T21:18:04.339Z,5.92
2023-02-15T21:20:32.329Z,5.83
2023-02-15T21:23:01.223Z,6.06
2023-02-15T21:25:30.912Z,6.36
2023-02-15T21:27:57.370Z,6.32
2023-02-15T21:30:24.639Z,6.16
2023-02-15T21:32:51.918Z,6.01
2023-02-15T21:35:19.418Z,5.91
2023-02-15T21:37:47.276Z,6.12
2023-02-15T21:40:13.696Z,6.19
2023-02-15T21:42:59.356Z,6.20
2023-02-15T21:45:44.394Z,5.97
2023-02-15T21:48:10.893Z,5.89
2023-02-15T21:50:56.583Z,6.07
2023-02-15T21:53:34.866Z,6.34
2023-02-15T21:56:04.046Z,6.26
2023-02-15T21:58:32.711Z,5.89
2023-02-15T22:01:00.736Z,5.84
2023-02-15T22:03:32.226Z,5.92
2023-02-15T22:05:58.763Z,5.84
2023-02-15T22:08:25.330Z,6.04
2023-02-15T22:10:53.945Z,6.18
2023-02-15T22:13:31.594Z,6.31
2023-02-15T22:15:58.794Z,6.41
2023-02-15T22:18:28.051Z,6.09
2023-02-15T22:20:55.698Z,6.12
2023-02-15T22:23:23.296Z,6.02
2023-02-15T22:25:55.424Z,6.34
2023-02-15T22:28:32.130Z,6.26
2023-02-15T22:30:58.647Z,6.46
2023-02-15T22:33:31.035Z,6.29
2023-02-15T22:35:57.946Z,6.19
2023-02-15T22:38:24.655Z,6.29
2023-02-15T22:40:56.068Z,6.21
2023-02-15T22:43:25.409Z,6.34
2023-02-15T22:45:52.262Z,6.44
2023-02-15T22:48:21.673Z,6.47
2023-02-15T22:50:48.762Z,6.80
2023-02-15T22:53:15.335Z,6.34
2023-02-15T22:55:42.103Z,6.24
2023-02-15T22:58:15.974Z,6.19
2023-02-15T23:00:42.584Z,6.76
2023-02-15T23:03:21.341Z,6.59
2023-02-15T23:05:48.025Z,6.74
2023-02-15T23:08:15.204Z,6.45
2023-02-15T23:10:43.560Z,6.76
2023-02-15T23:13:29.668Z,7.00
2023-02-15T23:16:02.713Z,7.14
2023-02-15T23:18:35.501Z,6.58
2023-02-15T23:21:21.988Z,6.60
2023-02-15T23:23:55.008Z,6.65
2023-02-15T23:26:25.729Z,6.53
2023-02-15T23:28:54.155Z,6.34
2023-02-15T23:31:36.645Z,6.33
2023-02-15T23:34:14.491Z,6.34
2023-02-15T23:36:41.025Z,6.06
2023-02-15T23:39:38.888Z,6.02
2023-02-15T23:42:10.056Z,6.34
2023-02-15T23:44:36.814Z,6.15
2023-02-15T23:47:03.502Z,6.47
2023-02-15T23:49:29.955Z,6.18
2023-02-15T23:51:57.501Z,5.82
2023-02-15T23:54:25.885Z,6.08
2023-02-15T23:56:59.362Z,6.27
2023-02-15T23:59:28.049Z,6.37
